createdAt,value
2023-12-26T00:00:09.636Z,5.66
2023-12-26T00:02:51.779Z,5.73
2023-12-26T00:04:45.162Z,5.78
2023-12-26T00:06:38.265Z,5.85
2023-12-26T00:08:33.293Z,5.91
2023-12-26T00:10:26.299Z,5.96
2023-12-26T00:12:19.843Z,6.01
2023-12-26T00:14:14.115Z,6.06
2023-12-26T00:16:07.842Z,6.11
2023-12-26T00:18:01.165Z,6.16
2023-12-26T00:19:54.795Z,6.20
2023-12-26T00:21:47.848Z,6.24
2023-12-26T00:23:40.931Z,6.28
2023-12-26T00:25:34.152Z,6.30
2023-12-26T00:27:27.247Z,6.33
2023-12-26T00:29:20.346Z,6.35
2023-12-26T00:31:13.488Z,6.37
2023-12-26T00:33:06.775Z,6.39
2023-12-26T00:35:00.021Z,6.41
2023-12-26T00:36:53.273Z,6.42
2023-12-26T00:38:48.443Z,6.44
2023-12-26T00:40:42.786Z,6.46
2023-12-26T00:42:35.847Z,6.48
2023-12-26T00:44:29.586Z,6.50
2023-12-26T00:46:22.735Z,6.52
2023-12-26T00:48:16.104Z,6.54
2023-12-26T00:50:13.508Z,6.56
2023-12-26T00:52:06.801Z,6.58
2023-12-26T00:53:59.816Z,6.61
2023-12-26T00:55:53.100Z,6.63
2023-12-26T00:57:46.268Z,6.66
2023-12-26T00:59:39.471Z,6.68
2023-12-26T01:01:32.634Z,6.69
2023-12-26T01:03:25.951Z,6.70
2023-12-26T01:05:20.277Z,6.71
2023-12-26T01:07:13.390Z,6.72
2023-12-26T01:09:07.858Z,6.73
2023-12-26T01:11:01.089Z,6.74
2023-12-26T01:12:54.403Z,6.75
2023-12-26T01:14:47.817Z,6.76
2023-12-26T01:16:41.050Z,6.78
2023-12-26T01:18:34.308Z,6.79
2023-12-26T01:20:27.681Z,6.80
2023-12-26T01:22:20.723Z,6.83
2023-12-26T01:24:13.803Z,6.85
2023-12-26T01:26:06.925Z,6.88
2023-12-26T01:28:00.886Z,6.90
2023-12-26T01:29:54.074Z,6.92
2023-12-26T01:31:47.179Z,6.94
2023-12-26T01:33:40.346Z,6.96
2023-12-26T01:35:33.834Z,6.98
2023-12-26T01:37:27.227Z,7.00
2023-12-26T01:39:20.282Z,7.02
2023-12-26T01:41:13.326Z,7.04
2023-12-26T01:43:06.430Z,7.07
2023-12-26T01:45:02.173Z,7.09
2023-12-26T01:46:57.206Z,7.11
2023-12-26T01:48:55.354Z,7.13
2023-12-26T01:50:48.622Z,7.14
2023-12-26T01:52:42.640Z,7.17
2023-12-26T01:54:38.669Z,7.19
2023-12-26T01:56:31.818Z,7.20
2023-12-26T01:58:25.777Z,7.23
2023-12-26T02:00:19.713Z,7.24
2023-12-26T02:02:15.739Z,7.26
2023-12-26T02:04:09.257Z,7.28
2023-12-26T02:06:04.765Z,7.29
2023-12-26T02:07:59.025Z,7.31
2023-12-26T02:09:52.599Z,7.32
2023-12-26T02:11:45.687Z,7.34
2023-12-26T02:13:40.434Z,7.36
2023-12-26T02:15:33.922Z,7.37
2023-12-26T02:17:27.630Z,7.39
2023-12-26T02:19:22.111Z,7.40
2023-12-26T02:21:15.698Z,7.42
2023-12-26T02:23:09.387Z,7.43
2023-12-26T02:25:02.516Z,7.45
2023-12-26T02:26:57.776Z,7.47
2023-12-26T02:28:53.568Z,7.50
2023-12-26T02:30:48.556Z,7.52
2023-12-26T02:32:44.184Z,7.53
2023-12-26T02:34:38.339Z,7.55
2023-12-26T02:36:31.889Z,7.57
2023-12-26T02:38:26.261Z,7.58
2023-12-26T02:40:19.523Z,7.60
2023-12-26T02:42:13.624Z,7.62
2023-12-26T02:44:07.574Z,7.65
2023-12-26T02:46:00.611Z,7.66
2023-12-26T02:47:53.805Z,7.67
2023-12-26T02:49:47.298Z,7.69
2023-12-26T02:51:40.488Z,7.71
2023-12-26T02:53:33.583Z,7.73
2023-12-26T02:55:26.588Z,7.75
2023-12-26T02:57:19.675Z,7.77
2023-12-26T02:59:13.096Z,7.78
2023-12-26T03:01:06.177Z,7.79
2023-12-26T03:02:59.537Z,7.81
2023-12-26T03:04:53.992Z,7.83
2023-12-26T03:06:47.145Z,7.84
2023-12-26T03:08:40.234Z,7.85
2023-12-26T03:10:33.241Z,7.87
2023-12-26T03:12:26.298Z,7.88
2023-12-26T03:14:19.348Z,7.89
2023-12-26T03:16:12.498Z,7.90
2023-12-26T03:18:06.422Z,7.91
2023-12-26T03:19:59.732Z,7.92
2023-12-26T03:21:52.878Z,7.92
2023-12-26T03:23:45.954Z,7.93
2023-12-26T03:25:39.083Z,7.95
2023-12-26T03:27:32.339Z,7.95
2023-12-26T03:29:25.387Z,7.96
2023-12-26T03:31:18.622Z,7.96
2023-12-26T03:33:11.872Z,7.97
2023-12-26T03:35:05.361Z,7.97
2023-12-26T03:36:58.388Z,7.98
2023-12-26T03:38:51.618Z,7.99
2023-12-26T03:40:44.729Z,7.99
2023-12-26T03:42:37.881Z,8.00
2023-12-26T03:44:31.123Z,7.99
2023-12-26T03:46:24.183Z,8.00
2023-12-26T03:48:17.400Z,8.00
2023-12-26T03:50:12.053Z,8.00
2023-12-26T03:52:05.787Z,8.00
2023-12-26T03:53:59.074Z,8.01
2023-12-26T03:55:52.202Z,8.01
2023-12-26T03:57:45.363Z,8.01
2023-12-26T03:59:39.363Z,8.01
2023-12-26T04:01:32.582Z,8.02
2023-12-26T04:03:26.115Z,8.02
2023-12-26T04:05:19.278Z,8.02
2023-12-26T04:07:12.446Z,8.03
2023-12-26T04:09:05.832Z,8.03
2023-12-26T04:10:59.166Z,8.02
2023-12-26T04:12:53.857Z,8.03
2023-12-26T04:14:47.144Z,8.03
2023-12-26T04:16:43.208Z,8.04
2023-12-26T04:18:37.133Z,8.05
2023-12-26T04:20:30.352Z,8.04
2023-12-26T04:22:23.412Z,8.04
2023-12-26T04:24:16.912Z,8.05
2023-12-26T04:26:10.122Z,8.05
2023-12-26T04:28:03.374Z,8.04
2023-12-26T04:29:57.068Z,8.04
2023-12-26T04:31:50.303Z,8.04
2023-12-26T04:33:43.522Z,8.05
2023-12-26T04:35:37.613Z,8.05
2023-12-26T04:37:30.674Z,8.05
2023-12-26T04:39:23.828Z,8.05
2023-12-26T04:41:16.887Z,8.06
2023-12-26T04:43:10.445Z,8.06
2023-12-26T04:45:04.436Z,8.07
2023-12-26T04:46:57.566Z,8.07
2023-12-26T04:48:51.138Z,8.08
2023-12-26T04:50:44.309Z,8.09
2023-12-26T04:52:37.441Z,8.11
2023-12-26T04:54:30.482Z,8.12
2023-12-26T04:56:24.456Z,8.14
2023-12-26T04:58:17.581Z,8.14
2023-12-26T05:00:12.582Z,8.15
2023-12-26T05:02:06.381Z,8.15
2023-12-26T05:03:59.566Z,8.15
2023-12-26T05:05:52.734Z,8.15
2023-12-26T05:07:45.835Z,8.15
2023-12-26T05:09:38.988Z,8.15
2023-12-26T05:11:32.148Z,8.14
2023-12-26T05:13:25.301Z,8.14
2023-12-26T05:15:18.456Z,8.14
2023-12-26T05:17:11.805Z,8.14
2023-12-26T05:19:05.021Z,8.15
2023-12-26T05:20:59.867Z,8.16
2023-12-26T05:22:53.304Z,8.16
2023-12-26T05:24:51.177Z,8.17
2023-12-26T05:26:47.363Z,8.19
2023-12-26T05:28:40.561Z,8.21
2023-12-26T05:30:33.689Z,8.23
2023-12-26T05:32:27.108Z,8.26
2023-12-26T05:34:21.443Z,8.28
2023-12-26T05:36:14.609Z,8.30
2023-12-26T05:38:08.051Z,8.32
2023-12-26T05:40:01.109Z,8.34
2023-12-26T05:41:55.632Z,8.37
2023-12-26T05:43:49.052Z,8.40
2023-12-26T05:45:42.198Z,8.42
2023-12-26T05:47:35.467Z,8.45
2023-12-26T05:49:29.112Z,8.48
2023-12-26T05:51:22.464Z,8.51
2023-12-26T05:53:15.634Z,8.54
2023-12-26T05:55:10.127Z,8.56
2023-12-26T05:57:05.370Z,8.58
2023-12-26T05:59:00.283Z,8.60
2023-12-26T06:00:54.155Z,8.62
2023-12-26T06:02:47.364Z,8.64
2023-12-26T06:04:42.037Z,8.65
2023-12-26T06:06:35.166Z,8.67
2023-12-26T06:08:28.750Z,8.69
2023-12-26T06:10:21.956Z,8.70
2023-12-26T06:12:15.057Z,8.71
2023-12-26T06:14:08.812Z,8.72
2023-12-26T06:16:02.081Z,8.73
2023-12-26T06:17:56.246Z,8.74
2023-12-26T06:19:50.340Z,8.75
2023-12-26T06:21:43.681Z,8.75
2023-12-26T06:23:36.950Z,8.75
2023-12-26T06:25:29.988Z,8.76
2023-12-26T06:27:23.181Z,8.76
2023-12-26T06:29:16.284Z,8.76
2023-12-26T06:31:16.264Z,8.77
2023-12-26T06:33:09.909Z,8.77
2023-12-26T06:35:05.676Z,8.77
2023-12-26T06:36:59.153Z,8.78
2023-12-26T06:38:52.226Z,8.79
2023-12-26T06:40:45.350Z,8.79
2023-12-26T06:42:38.509Z,8.79
2023-12-26T06:44:32.165Z,8.79
2023-12-26T06:46:25.330Z,8.80
2023-12-26T06:48:18.733Z,8.81
2023-12-26T06:50:12.339Z,8.82
2023-12-26T06:52:07.516Z,8.83
2023-12-26T06:54:01.095Z,8.83
2023-12-26T06:55:54.258Z,8.83
2023-12-26T06:57:47.407Z,8.84
2023-12-26T06:59:40.981Z,8.84
2023-12-26T07:01:35.256Z,8.83
2023-12-26T07:03:28.569Z,8.83
2023-12-26T07:05:21.836Z,8.83
2023-12-26T07:07:14.964Z,8.83
2023-12-26T07:09:08.045Z,8.84
2023-12-26T07:11:01.121Z,8.84
2023-12-26T07:12:54.465Z,8.83
2023-12-26T07:14:47.870Z,8.84
2023-12-26T07:16:40.995Z,8.83
2023-12-26T07:18:34.204Z,8.83
2023-12-26T07:20:27.520Z,8.82
2023-12-26T07:22:20.563Z,8.82
2023-12-26T07:24:14.308Z,8.82
2023-12-26T07:26:07.375Z,8.82
2023-12-26T07:28:00.421Z,8.82
2023-12-26T07:29:53.492Z,8.82
2023-12-26T07:31:46.723Z,8.82
2023-12-26T07:33:40.309Z,8.82
2023-12-26T07:35:37.440Z,8.82
2023-12-26T07:37:30.484Z,8.82
2023-12-26T07:39:23.777Z,8.82
2023-12-26T07:41:16.891Z,8.81
2023-12-26T07:43:11.729Z,8.83
2023-12-26T07:45:05.689Z,8.84
2023-12-26T07:46:58.824Z,8.85
2023-12-26T07:48:52.241Z,8.85
2023-12-26T07:50:45.579Z,8.86
2023-12-26T07:52:38.782Z,8.86
2023-12-26T07:54:31.836Z,8.86
2023-12-26T07:56:26.891Z,8.85
2023-12-26T07:58:19.999Z,8.85
2023-12-26T08:00:14.127Z,8.84
2023-12-26T08:02:07.515Z,8.84
2023-12-26T08:04:00.560Z,8.84
2023-12-26T08:05:53.742Z,8.84
2023-12-26T08:07:46.990Z,8.84
2023-12-26T08:09:40.050Z,8.84
2023-12-26T08:11:33.191Z,8.84
2023-12-26T08:13:26.180Z,8.83
2023-12-26T08:15:19.653Z,8.84
2023-12-26T08:17:13.921Z,8.84
2023-12-26T08:19:07.272Z,8.83
2023-12-26T08:21:02.256Z,8.83
2023-12-26T08:22:55.563Z,8.83
2023-12-26T08:24:49.648Z,8.83
2023-12-26T08:26:43.488Z,8.83
2023-12-26T08:28:36.690Z,8.83
2023-12-26T08:30:29.786Z,8.84
2023-12-26T08:32:23.185Z,8.83
2023-12-26T08:34:16.616Z,8.83
2023-12-26T08:36:09.817Z,8.83
2023-12-26T08:38:03.172Z,8.83
2023-12-26T08:39:56.314Z,8.82
2023-12-26T08:41:49.430Z,8.82
2023-12-26T08:43:42.719Z,8.81
2023-12-26T08:45:37.716Z,8.81
2023-12-26T08:47:30.847Z,8.81
2023-12-26T08:49:24.076Z,8.80
2023-12-26T08:51:18.554Z,8.80
2023-12-26T08:53:11.763Z,8.79
2023-12-26T08:55:05.533Z,8.79
2023-12-26T08:56:58.591Z,8.78
2023-12-26T08:58:52.040Z,8.78
2023-12-26T09:00:46.575Z,8.78
2023-12-26T09:02:47.643Z,8.80
2023-12-26T09:04:47.800Z,8.81
2023-12-26T09:06:41.147Z,8.82
2023-12-26T09:08:34.486Z,8.82
2023-12-26T09:10:27.555Z,8.83
2023-12-26T09:12:20.675Z,8.83
2023-12-26T09:14:15.111Z,8.84
2023-12-26T09:16:09.587Z,8.84
2023-12-26T09:18:04.950Z,8.85
2023-12-26T09:19:58.224Z,8.87
2023-12-26T09:21:51.271Z,8.89
2023-12-26T09:23:44.237Z,8.90
2023-12-26T09:25:37.321Z,8.93
2023-12-26T09:27:30.421Z,8.95
2023-12-26T09:29:23.577Z,8.96
2023-12-26T09:31:16.799Z,8.96
2023-12-26T09:33:10.099Z,8.97
2023-12-26T09:35:03.646Z,8.96
2023-12-26T09:36:57.422Z,8.96
2023-12-26T09:38:50.590Z,8.96
2023-12-26T09:40:43.923Z,8.95
2023-12-26T09:42:37.035Z,8.95
2023-12-26T09:44:30.954Z,8.94
2023-12-26T09:46:24.209Z,8.94
2023-12-26T09:48:17.599Z,8.93
2023-12-26T09:50:11.742Z,8.95
2023-12-26T09:52:09.907Z,8.95
2023-12-26T09:54:05.535Z,8.96
2023-12-26T09:55:59.445Z,8.97
2023-12-26T09:57:52.647Z,8.98
2023-12-26T09:59:46.035Z,8.97
2023-12-26T10:01:39.112Z,8.97
2023-12-26T10:03:33.010Z,8.97
2023-12-26T10:05:27.744Z,8.98
2023-12-26T10:07:21.170Z,8.97
2023-12-26T10:09:16.390Z,9.00
2023-12-26T10:11:17.034Z,9.02
2023-12-26T10:13:10.151Z,9.04
2023-12-26T10:15:05.653Z,9.07
2023-12-26T10:17:00.287Z,9.10
2023-12-26T10:18:53.564Z,9.17
2023-12-26T10:20:46.981Z,9.26
2023-12-26T10:22:43.393Z,9.29
2023-12-26T10:24:36.368Z,9.29
2023-12-26T10:26:29.392Z,9.32
2023-12-26T10:28:23.015Z,9.34
2023-12-26T10:30:19.555Z,9.35
2023-12-26T10:32:31.432Z,9.37
2023-12-26T10:34:30.667Z,9.37
2023-12-26T10:36:24.191Z,9.36
2023-12-26T10:38:17.397Z,9.36
2023-12-26T10:40:11.388Z,9.37
2023-12-26T10:42:07.772Z,9.39
2023-12-26T10:44:02.475Z,9.41
2023-12-26T10:45:58.192Z,9.44
2023-12-26T10:47:55.851Z,9.48
2023-12-26T10:49:49.876Z,9.52
2023-12-26T10:51:44.837Z,9.54
2023-12-26T10:53:50.617Z,9.55
2023-12-26T10:55:46.697Z,9.55
2023-12-26T10:57:42.362Z,9.56
2023-12-26T11:00:31.958Z,9.55
2023-12-26T11:03:39.617Z,9.52
2023-12-26T11:06:47.595Z,9.47
2023-12-26T11:09:56.024Z,9.44
2023-12-26T11:13:04.530Z,9.48
2023-12-26T11:16:13.084Z,9.53
2023-12-26T11:19:21.566Z,9.57
2023-12-26T11:22:30.096Z,9.50
2023-12-26T11:25:38.106Z,9.41
2023-12-26T11:28:46.438Z,9.32
2023-12-26T11:31:54.891Z,9.25
2023-12-26T11:34:44.648Z,9.27
2023-12-26T11:37:53.494Z,9.29
2023-12-26T11:41:01.860Z,9.30
2023-12-26T11:43:51.328Z,9.27
2023-12-26T11:47:00.063Z,9.25
2023-12-26T11:50:08.483Z,9.36
2023-12-26T11:52:57.860Z,9.44
2023-12-26T11:56:05.852Z,9.47
2023-12-26T11:59:14.376Z,9.46
2023-12-26T12:02:22.950Z,9.38
2023-12-26T12:05:12.627Z,9.32
2023-12-26T12:08:21.256Z,9.26
2023-12-26T12:11:29.406Z,9.21
2023-12-26T12:14:37.942Z,9.16
2023-12-26T12:17:27.400Z,9.06
2023-12-26T12:20:35.818Z,8.97
2023-12-26T12:23:44.769Z,8.94
2023-12-26T12:26:53.282Z,8.91
2023-12-26T12:30:02.859Z,8.83
2023-12-26T12:33:11.609Z,8.77
2023-12-26T12:36:19.156Z,8.74
2023-12-26T12:39:27.550Z,8.70
2023-12-26T12:42:35.662Z,8.64
2023-12-26T12:45:44.114Z,8.59
2023-12-26T12:48:52.475Z,8.51
2023-12-26T12:52:00.795Z,8.45
2023-12-26T12:55:09.159Z,8.40
2023-12-26T12:57:58.810Z,8.39
2023-12-26T13:01:07.240Z,8.35
2023-12-26T13:04:21.025Z,8.34
2023-12-26T13:07:29.595Z,8.33
2023-12-26T13:10:19.065Z,8.32
2023-12-26T13:13:27.281Z,8.28
2023-12-26T13:16:36.006Z,8.27
2023-12-26T13:19:46.079Z,8.25
2023-12-26T13:22:54.785Z,8.24
2023-12-26T13:26:02.925Z,8.22
2023-12-26T13:29:11.213Z,8.22
2023-12-26T13:32:19.634Z,8.22
2023-12-26T13:35:27.843Z,8.23
2023-12-26T13:38:36.205Z,8.25
2023-12-26T13:41:44.607Z,8.28
2023-12-26T13:44:53.030Z,8.28
2023-12-26T13:48:02.191Z,8.29
2023-12-26T13:51:10.749Z,8.27
2023-12-26T13:53:15.701Z,8.26
2023-12-26T13:55:46.226Z,8.25
2023-12-26T13:57:39.203Z,8.25
2023-12-26T14:00:10.119Z,8.27
2023-12-26T14:02:07.545Z,8.31
2023-12-26T14:04:40.456Z,8.31
2023-12-26T14:06:36.442Z,8.31
2023-12-26T14:09:07.529Z,8.31
2023-12-26T14:11:00.626Z,8.29
2023-12-26T14:13:31.269Z,8.27
2023-12-26T14:15:24.249Z,8.23
2023-12-26T14:17:55.290Z,8.22
2023-12-26T14:19:48.424Z,8.21
2023-12-26T14:22:19.258Z,8.20
2023-12-26T14:24:12.319Z,8.19
2023-12-26T14:26:43.511Z,8.18
2023-12-26T14:28:36.507Z,8.17
2023-12-26T14:31:07.332Z,8.18
2023-12-26T14:33:00.763Z,8.16
2023-12-26T14:34:54.260Z,8.15
2023-12-26T14:36:47.626Z,8.14
2023-12-26T14:39:18.071Z,8.15
2023-12-26T14:41:11.157Z,8.14
2023-12-26T14:43:41.839Z,8.14
2023-12-26T14:45:34.909Z,8.14
2023-12-26T14:48:06.736Z,8.15
2023-12-26T14:49:59.890Z,8.13
2023-12-26T14:52:30.521Z,8.11
2023-12-26T14:54:23.755Z,8.03
2023-12-26T14:56:54.142Z,7.98
2023-12-26T14:58:47.260Z,7.91
2023-12-26T15:01:18.036Z,7.85
2023-12-26T15:03:11.286Z,7.81
2023-12-26T15:05:05.153Z,7.79
2023-12-26T15:06:59.401Z,7.79
2023-12-26T15:08:52.466Z,7.78
2023-12-26T15:10:46.008Z,7.80
2023-12-26T15:12:39.233Z,7.80
2023-12-26T15:14:42.110Z,7.81
2023-12-26T15:16:37.346Z,7.82
2023-12-26T15:18:30.999Z,7.83
2023-12-26T15:20:24.269Z,7.83
2023-12-26T15:22:17.725Z,7.85
2023-12-26T15:24:12.326Z,7.87
2023-12-26T15:26:16.020Z,7.87
2023-12-26T15:28:09.431Z,7.89
2023-12-26T15:30:02.871Z,7.90
2023-12-26T15:31:56.610Z,7.90
2023-12-26T15:33:51.518Z,7.90
2023-12-26T15:35:44.850Z,7.90
2023-12-26T15:37:37.948Z,7.90
2023-12-26T15:39:31.556Z,7.91
2023-12-26T15:41:25.654Z,7.92
2023-12-26T15:43:18.753Z,7.93
2023-12-26T15:45:12.290Z,7.94
2023-12-26T15:47:05.519Z,7.95
2023-12-26T15:48:58.763Z,7.96
2023-12-26T15:50:52.053Z,7.97
2023-12-26T15:52:45.068Z,7.98
2023-12-26T15:54:41.303Z,7.99
2023-12-26T15:56:35.167Z,8.00
2023-12-26T15:58:28.320Z,8.01
2023-12-26T16:00:21.524Z,8.02
2023-12-26T16:02:15.874Z,8.03
2023-12-26T16:04:09.725Z,8.03
2023-12-26T16:06:03.287Z,8.03
2023-12-26T16:07:57.026Z,8.03
2023-12-26T16:09:50.202Z,8.22
2023-12-26T16:11:46.703Z,8.44
2023-12-26T16:13:41.506Z,8.57
2023-12-26T16:15:35.904Z,8.77
2023-12-26T16:17:29.177Z,8.94
2023-12-26T16:19:22.278Z,9.05
2023-12-26T16:21:15.448Z,9.11
2023-12-26T16:23:11.703Z,9.08
2023-12-26T16:25:05.223Z,9.09
2023-12-26T16:26:58.288Z,9.09
2023-12-26T16:28:54.066Z,8.97
2023-12-26T16:30:47.462Z,8.83
2023-12-26T16:32:40.916Z,8.69
2023-12-26T16:34:34.397Z,8.57
2023-12-26T16:36:27.818Z,8.48
2023-12-26T16:38:21.118Z,8.38
2023-12-26T16:40:14.587Z,8.30
2023-12-26T16:42:10.873Z,8.25
2023-12-26T16:44:10.300Z,8.18
2023-12-26T16:46:08.167Z,8.12
2023-12-26T16:48:02.278Z,8.06
2023-12-26T16:49:56.559Z,8.00
2023-12-26T16:51:49.882Z,7.99
2023-12-26T16:53:44.258Z,7.96
2023-12-26T16:55:37.520Z,7.92
2023-12-26T16:57:31.691Z,7.89
2023-12-26T16:59:24.906Z,7.86
2023-12-26T17:01:18.220Z,7.83
2023-12-26T17:03:11.550Z,7.79
2023-12-26T17:05:07.828Z,7.77
2023-12-26T17:07:01.147Z,7.73
2023-12-26T17:08:54.398Z,7.70
2023-12-26T17:10:47.664Z,7.68
2023-12-26T17:12:40.704Z,7.67
2023-12-26T17:14:34.039Z,7.67
2023-12-26T17:16:27.418Z,7.67
2023-12-26T17:18:20.931Z,7.67
2023-12-26T17:20:14.243Z,7.66
2023-12-26T17:22:11.836Z,7.67
2023-12-26T17:24:06.379Z,7.67
2023-12-26T17:25:59.642Z,7.65
2023-12-26T17:27:52.915Z,7.64
2023-12-26T17:29:46.765Z,7.64
2023-12-26T17:31:56.105Z,7.64
2023-12-26T17:33:50.755Z,7.63
2023-12-26T17:35:45.434Z,7.63
2023-12-26T17:37:38.448Z,7.62
2023-12-26T17:39:33.448Z,7.62
2023-12-26T17:41:26.884Z,7.63
2023-12-26T17:43:20.041Z,7.90
2023-12-26T17:47:40.039Z,8.40
2023-12-26T17:49:33.409Z,8.55
2023-12-26T17:51:26.910Z,8.66
2023-12-26T17:53:20.329Z,8.74
2023-12-26T17:55:14.896Z,8.81
2023-12-26T17:57:08.003Z,8.92
2023-12-26T17:59:01.095Z,8.89
2023-12-26T18:00:54.727Z,8.75
2023-12-26T18:02:47.983Z,8.60
2023-12-26T18:04:41.483Z,8.47
2023-12-26T18:06:34.959Z,8.35
2023-12-26T18:08:29.633Z,8.22
2023-12-26T18:10:22.779Z,8.13
2023-12-26T18:12:15.971Z,8.04
2023-12-26T18:14:13.072Z,7.98
2023-12-26T18:16:06.432Z,7.92
2023-12-26T18:18:00.004Z,7.87
2023-12-26T18:19:57.071Z,7.83
2023-12-26T18:21:52.432Z,7.79
2023-12-26T18:23:45.599Z,7.78
2023-12-26T18:25:38.754Z,7.74
2023-12-26T18:27:31.957Z,7.75
2023-12-26T18:29:25.324Z,7.73
2023-12-26T18:31:20.547Z,7.72
2023-12-26T18:33:14.385Z,7.71
2023-12-26T18:35:13.114Z,7.70
2023-12-26T18:37:06.327Z,7.69
2023-12-26T18:38:59.770Z,7.70
2023-12-26T18:40:53.098Z,7.70
2023-12-26T18:42:46.566Z,7.70
2023-12-26T18:44:39.820Z,7.70
2023-12-26T18:46:33.376Z,7.70
2023-12-26T18:48:28.655Z,7.71
2023-12-26T18:50:22.245Z,7.72
2023-12-26T18:52:16.631Z,7.71
2023-12-26T18:54:10.380Z,7.70
2023-12-26T18:56:03.775Z,7.68
2023-12-26T18:57:59.123Z,7.69
2023-12-26T18:59:52.498Z,7.70
2023-12-26T19:01:45.776Z,7.69
2023-12-26T19:03:41.955Z,7.68
2023-12-26T19:05:35.600Z,7.68
2023-12-26T19:07:29.881Z,7.67
2023-12-26T19:09:26.515Z,7.67
2023-12-26T19:11:23.820Z,7.67
2023-12-26T19:13:23.124Z,7.68
2023-12-26T19:15:24.452Z,7.67
2023-12-26T19:17:23.061Z,7.67
2023-12-26T19:19:16.805Z,7.67
2023-12-26T19:21:13.225Z,7.68
2023-12-26T19:23:07.822Z,7.66
2023-12-26T19:25:00.865Z,7.64
2023-12-26T19:26:57.024Z,7.62
2023-12-26T19:28:52.191Z,7.59
2023-12-26T19:30:46.873Z,7.56
2023-12-26T19:32:40.699Z,7.53
2023-12-26T19:34:34.286Z,7.51
2023-12-26T19:36:28.104Z,7.51
2023-12-26T19:38:21.549Z,7.50
2023-12-26T19:40:15.626Z,7.50
2023-12-26T19:42:10.772Z,7.49
2023-12-26T19:44:04.401Z,7.47
2023-12-26T19:45:58.666Z,7.46
2023-12-26T19:47:53.838Z,7.45
2023-12-26T19:49:47.166Z,7.44
2023-12-26T19:51:42.653Z,7.44
2023-12-26T19:53:36.290Z,7.43
2023-12-26T19:55:30.190Z,7.42
2023-12-26T19:57:24.547Z,7.42
2023-12-26T19:59:18.824Z,7.41
2023-12-26T20:01:12.768Z,7.41
2023-12-26T20:03:15.580Z,7.41
2023-12-26T20:05:18.970Z,7.39
2023-12-26T20:07:13.876Z,7.34
2023-12-26T20:09:10.421Z,7.29
2023-12-26T20:11:04.167Z,7.21
2023-12-26T20:12:57.561Z,7.09
2023-12-26T20:15:00.282Z,7.00
2023-12-26T20:16:53.654Z,6.92
2023-12-26T20:18:47.617Z,6.86
2023-12-26T20:20:41.311Z,6.80
2023-12-26T20:22:34.658Z,6.74
2023-12-26T20:24:27.882Z,6.67
2023-12-26T20:26:21.349Z,6.61
2023-12-26T20:28:16.084Z,6.57
2023-12-26T20:30:12.274Z,6.53
2023-12-26T20:32:05.977Z,6.49
2023-12-26T20:33:59.168Z,6.45
2023-12-26T20:35:52.164Z,6.43
2023-12-26T20:37:45.815Z,6.40
2023-12-26T20:39:39.173Z,6.38
2023-12-26T20:41:32.673Z,6.36
2023-12-26T20:43:25.988Z,6.34
2023-12-26T20:45:19.283Z,6.32
2023-12-26T20:47:12.398Z,6.32
2023-12-26T20:49:09.616Z,6.32
2023-12-26T20:51:02.987Z,6.31
2023-12-26T20:52:55.995Z,6.31
2023-12-26T20:54:49.984Z,6.31
2023-12-26T20:56:45.749Z,6.32
2023-12-26T20:58:39.981Z,6.32
2023-12-26T21:00:33.890Z,6.31
2023-12-26T21:02:27.144Z,6.31
2023-12-26T21:04:20.218Z,6.30
2023-12-26T21:06:19.248Z,6.27
2023-12-26T21:08:12.444Z,6.26
2023-12-26T21:10:08.543Z,6.26
2023-12-26T21:12:01.851Z,6.25
2023-12-26T21:13:56.115Z,6.24
2023-12-26T21:15:49.513Z,6.23
2023-12-26T21:17:42.570Z,6.21
2023-12-26T21:19:36.680Z,6.18
2023-12-26T21:21:30.340Z,6.17
2023-12-26T21:23:23.709Z,6.14
2023-12-26T21:25:17.214Z,6.14
2023-12-26T21:27:10.441Z,6.13
2023-12-26T21:29:03.838Z,6.12
2023-12-26T21:30:56.936Z,6.12
2023-12-26T21:32:50.085Z,6.12
2023-12-26T21:34:46.412Z,6.10
2023-12-26T21:36:40.124Z,6.09
2023-12-26T21:38:33.712Z,6.09
2023-12-26T21:40:26.805Z,6.09
2023-12-26T21:42:22.175Z,6.09
2023-12-26T21:44:17.435Z,6.08
2023-12-26T21:46:14.162Z,6.09
2023-12-26T21:48:07.523Z,6.09
2023-12-26T21:50:04.343Z,6.09
2023-12-26T21:51:58.922Z,6.08
2023-12-26T21:53:53.066Z,6.06
2023-12-26T21:55:46.672Z,6.07
2023-12-26T21:57:40.555Z,6.08
2023-12-26T21:59:36.149Z,6.09
2023-12-26T22:01:33.935Z,6.14
2023-12-26T22:03:28.931Z,6.14
2023-12-26T22:05:23.171Z,6.14
2023-12-26T22:07:16.272Z,6.13
2023-12-26T22:09:09.605Z,6.13
2023-12-26T22:11:02.757Z,6.11
2023-12-26T22:12:56.176Z,6.10
2023-12-26T22:14:49.410Z,6.10
2023-12-26T22:16:42.766Z,6.08
2023-12-26T22:18:36.193Z,6.07
2023-12-26T22:20:30.397Z,6.07
2023-12-26T22:22:24.982Z,6.06
2023-12-26T22:24:18.867Z,6.07
2023-12-26T22:26:12.597Z,6.06
2023-12-26T22:28:06.198Z,6.05
2023-12-26T22:29:59.382Z,6.03
2023-12-26T22:31:52.723Z,6.02
2023-12-26T22:33:46.617Z,6.01
2023-12-26T22:35:40.945Z,6.00
2023-12-26T22:37:34.061Z,5.97
2023-12-26T22:39:27.237Z,5.97
2023-12-26T22:41:21.911Z,5.95
2023-12-26T22:43:15.041Z,5.95
2023-12-26T22:45:09.253Z,5.95
2023-12-26T22:47:02.928Z,5.94
2023-12-26T22:48:57.061Z,5.93
2023-12-26T22:50:51.038Z,5.92
2023-12-26T22:52:44.289Z,5.90
2023-12-26T22:54:38.763Z,5.90
2023-12-26T22:56:33.564Z,5.88
2023-12-26T22:58:26.610Z,5.86
2023-12-26T23:00:21.253Z,5.87
2023-12-26T23:02:15.532Z,5.88
2023-12-26T23:04:08.693Z,5.91
2023-12-26T23:06:02.034Z,5.94
2023-12-26T23:07:55.502Z,5.97
2023-12-26T23:09:48.721Z,6.02
2023-12-26T23:11:43.043Z,6.03
2023-12-26T23:13:36.091Z,6.05
2023-12-26T23:15:29.222Z,6.05
2023-12-26T23:17:22.815Z,6.06
2023-12-26T23:19:16.273Z,6.06
2023-12-26T23:21:18.195Z,6.03
2023-12-26T23:23:12.046Z,5.98
2023-12-26T23:25:05.796Z,5.92
2023-12-26T23:26:58.941Z,5.87
2023-12-26T23:28:52.128Z,5.81
2023-12-26T23:30:45.236Z,5.74
2023-12-26T23:32:38.489Z,5.67
2023-12-26T23:34:44.132Z,5.63
2023-12-26T23:36:41.351Z,5.59
2023-12-26T23:38:34.470Z,5.57
2023-12-26T23:40:27.749Z,5.52
2023-12-26T23:42:21.234Z,5.48
2023-12-26T23:44:14.460Z,5.45
2023-12-26T23:46:12.150Z,5.41
2023-12-26T23:48:05.745Z,5.37
2023-12-26T23:49:59.321Z,5.33
2023-12-26T23:51:55.912Z,5.28
2023-12-26T23:53:55.925Z,5.24
2023-12-26T23:55:50.362Z,5.21
2023-12-26T23:57:44.266Z,5.16
2023-12-26T23:59:38.069Z,5.11
